sensor_id;sensor_type;location;lat;lon;timestamp;P1;durP1;ratioP1;P2;durP2;ratioP2
7831;SDS011;3961;42.058;25.586;2023-07-30T00:02:19;5.43;;;2.47;;
7831;SDS011;3961;42.058;25.586;2023-07-30T00:04:44;4.47;;;2.60;;
7831;SDS011;3961;42.058;25.586;2023-07-30T00:07:10;2.87;;;2.20;;
7831;SDS011;3961;42.058;25.586;2023-07-30T00:09:37;5.73;;;2.97;;
7831;SDS011;3961;42.058;25.586;2023-07-30T00:12:03;3.97;;;2.40;;
7831;SDS011;3961;42.058;25.586;2023-07-30T00:14:32;3.00;;;2.20;;
7831;SDS011;3961;42.058;25.586;2023-07-30T00:16:58;3.00;;;2.60;;
7831;SDS011;3961;42.058;25.586;2023-07-30T00:19:23;3.23;;;2.40;;
7831;SDS011;3961;42.058;25.586;2023-07-30T00:21:49;3.97;;;2.40;;
7831;SDS011;3961;42.058;25.586;2023-07-30T00:24:14;5.33;;;2.73;;
7831;SDS011;3961;42.058;25.586;2023-07-30T00:26:40;3.00;;;2.20;;
7831;SDS011;3961;42.058;25.586;2023-07-30T00:29:06;3.33;;;2.40;;
7831;SDS011;3961;42.058;25.586;2023-07-30T00:31:31;2.57;;;2.20;;
7831;SDS011;3961;42.058;25.586;2023-07-30T00:33:57;3.83;;;2.57;;
7831;SDS011;3961;42.058;25.586;2023-07-30T00:36:22;5.57;;;2.40;;
7831;SDS011;3961;42.058;25.586;2023-07-30T00:38:48;3.50;;;2.53;;
7831;SDS011;3961;42.058;25.586;2023-07-30T00:41:13;2.60;;;2.27;;
7831;SDS011;3961;42.058;25.586;2023-07-30T00:43:38;5.23;;;2.90;;
7831;SDS011;3961;42.058;25.586;2023-07-30T00:46:04;8.57;;;2.50;;
7831;SDS011;3961;42.058;25.586;2023-07-30T00:48:29;3.90;;;2.60;;
7831;SDS011;3961;42.058;25.586;2023-07-30T00:50:55;3.67;;;2.60;;
7831;SDS011;3961;42.058;25.586;2023-07-30T00:53:21;5.93;;;2.43;;
7831;SDS011;3961;42.058;25.586;2023-07-30T00:55:48;4.97;;;2.70;;
7831;SDS011;3961;42.058;25.586;2023-07-30T00:58:13;5.67;;;2.80;;
7831;SDS011;3961;42.058;25.586;2023-07-30T01:00:40;3.80;;;2.97;;
7831;SDS011;3961;42.058;25.586;2023-07-30T01:03:06;4.73;;;3.20;;
7831;SDS011;3961;42.058;25.586;2023-07-30T01:05:32;6.23;;;2.60;;
7831;SDS011;3961;42.058;25.586;2023-07-30T01:07:58;2.80;;;2.50;;
7831;SDS011;3961;42.058;25.586;2023-07-30T01:10:23;4.07;;;2.57;;
7831;SDS011;3961;42.058;25.586;2023-07-30T01:12:50;5.27;;;2.70;;
7831;SDS011;3961;42.058;25.586;2023-07-30T01:15:16;5.80;;;2.40;;
7831;SDS011;3961;42.058;25.586;2023-07-30T01:17:42;3.27;;;2.50;;
7831;SDS011;3961;42.058;25.586;2023-07-30T01:20:08;3.53;;;2.50;;
7831;SDS011;3961;42.058;25.586;2023-07-30T01:22:33;3.20;;;2.43;;
7831;SDS011;3961;42.058;25.586;2023-07-30T01:24:59;4.80;;;2.80;;
7831;SDS011;3961;42.058;25.586;2023-07-30T01:27:25;4.37;;;3.00;;
7831;SDS011;3961;42.058;25.586;2023-07-30T01:30:05;3.20;;;2.57;;
7831;SDS011;3961;42.058;25.586;2023-07-30T01:32:37;5.53;;;2.60;;
7831;SDS011;3961;42.058;25.586;2023-07-30T01:35:04;4.57;;;2.70;;
7831;SDS011;3961;42.058;25.586;2023-07-30T01:37:32;6.17;;;3.00;;
7831;SDS011;3961;42.058;25.586;2023-07-30T01:39:59;5.20;;;3.10;;
7831;SDS011;3961;42.058;25.586;2023-07-30T01:42:29;6.73;;;2.73;;
7831;SDS011;3961;42.058;25.586;2023-07-30T01:44:54;4.50;;;2.60;;
7831;SDS011;3961;42.058;25.586;2023-07-30T01:47:20;12.03;;;3.33;;
7831;SDS011;3961;42.058;25.586;2023-07-30T01:49:45;5.50;;;2.90;;
7831;SDS011;3961;42.058;25.586;2023-07-30T01:52:13;7.12;;;2.96;;
7831;SDS011;3961;42.058;25.586;2023-07-30T01:54:38;6.20;;;3.30;;
7831;SDS011;3961;42.058;25.586;2023-07-30T01:57:03;5.83;;;3.10;;
7831;SDS011;3961;42.058;25.586;2023-07-30T01:59:29;3.97;;;3.00;;
7831;SDS011;3961;42.058;25.586;2023-07-30T02:01:54;5.77;;;3.30;;
7831;SDS011;3961;42.058;25.586;2023-07-30T02:04:20;3.73;;;3.33;;
7831;SDS011;3961;42.058;25.586;2023-07-30T02:06:45;11.57;;;3.30;;
7831;SDS011;3961;42.058;25.586;2023-07-30T02:09:11;6.13;;;3.60;;
7831;SDS011;3961;42.058;25.586;2023-07-30T02:11:36;6.40;;;3.53;;
7831;SDS011;3961;42.058;25.586;2023-07-30T02:14:01;6.93;;;3.30;;
7831;SDS011;3961;42.058;25.586;2023-07-30T02:16:27;6.33;;;2.87;;
7831;SDS011;3961;42.058;25.586;2023-07-30T02:18:52;9.87;;;3.50;;
7831;SDS011;3961;42.058;25.586;2023-07-30T02:21:17;7.97;;;3.20;;
7831;SDS011;3961;42.058;25.586;2023-07-30T02:23:43;6.37;;;3.47;;
7831;SDS011;3961;42.058;25.586;2023-07-30T02:26:08;5.87;;;3.30;;
7831;SDS011;3961;42.058;25.586;2023-07-30T02:28:34;6.33;;;3.57;;
7831;SDS011;3961;42.058;25.586;2023-07-30T02:30:59;8.50;;;3.50;;
7831;SDS011;3961;42.058;25.586;2023-07-30T02:33:24;5.13;;;2.97;;
7831;SDS011;3961;42.058;25.586;2023-07-30T02:35:50;9.57;;;4.20;;
7831;SDS011;3961;42.058;25.586;2023-07-30T02:38:15;8.70;;;3.70;;
7831;SDS011;3961;42.058;25.586;2023-07-30T02:40:41;7.27;;;3.57;;
7831;SDS011;3961;42.058;25.586;2023-07-30T02:43:06;5.03;;;3.73;;
7831;SDS011;3961;42.058;25.586;2023-07-30T02:45:31;5.63;;;2.93;;
7831;SDS011;3961;42.058;25.586;2023-07-30T02:47:57;4.00;;;3.13;;
7831;SDS011;3961;42.058;25.586;2023-07-30T02:50:22;3.97;;;3.43;;
7831;SDS011;3961;42.058;25.586;2023-07-30T02:52:47;6.93;;;3.37;;
7831;SDS011;3961;42.058;25.586;2023-07-30T02:55:13;5.70;;;3.60;;
7831;SDS011;3961;42.058;25.586;2023-07-30T02:57:38;5.07;;;3.40;;
7831;SDS011;3961;42.058;25.586;2023-07-30T03:00:04;7.07;;;3.23;;
7831;SDS011;3961;42.058;25.586;2023-07-30T03:02:30;7.40;;;3.83;;
7831;SDS011;3961;42.058;25.586;2023-07-30T03:04:55;5.80;;;3.37;;
7831;SDS011;3961;42.058;25.586;2023-07-30T03:07:21;11.53;;;4.30;;
7831;SDS011;3961;42.058;25.586;2023-07-30T03:09:47;7.00;;;3.87;;
7831;SDS011;3961;42.058;25.586;2023-07-30T03:12:13;8.67;;;4.23;;
7831;SDS011;3961;42.058;25.586;2023-07-30T03:14:38;5.97;;;3.67;;
7831;SDS011;3961;42.058;25.586;2023-07-30T03:17:03;7.53;;;3.57;;
7831;SDS011;3961;42.058;25.586;2023-07-30T03:19:30;7.33;;;3.53;;
7831;SDS011;3961;42.058;25.586;2023-07-30T03:21:55;9.90;;;4.43;;
7831;SDS011;3961;42.058;25.586;2023-07-30T03:24:21;5.23;;;3.60;;
7831;SDS011;3961;42.058;25.586;2023-07-30T03:26:46;11.67;;;4.37;;
7831;SDS011;3961;42.058;25.586;2023-07-30T03:29:11;7.93;;;4.33;;
7831;SDS011;3961;42.058;25.586;2023-07-30T03:31:37;8.07;;;3.87;;
7831;SDS011;3961;42.058;25.586;2023-07-30T03:34:02;9.83;;;5.10;;
7831;SDS011;3961;42.058;25.586;2023-07-30T03:36:27;8.53;;;4.43;;
7831;SDS011;3961;42.058;25.586;2023-07-30T03:38:53;8.20;;;4.17;;
7831;SDS011;3961;42.058;25.586;2023-07-30T03:41:18;4.57;;;3.63;;
7831;SDS011;3961;42.058;25.586;2023-07-30T03:43:44;12.20;;;5.97;;
7831;SDS011;3961;42.058;25.586;2023-07-30T03:46:09;5.17;;;3.60;;
7831;SDS011;3961;42.058;25.586;2023-07-30T03:48:35;7.23;;;4.13;;
7831;SDS011;3961;42.058;25.586;2023-07-30T03:51:00;5.60;;;3.47;;
7831;SDS011;3961;42.058;25.586;2023-07-30T03:53:25;12.03;;;4.43;;
7831;SDS011;3961;42.058;25.586;2023-07-30T03:55:51;6.67;;;3.90;;
7831;SDS011;3961;42.058;25.586;2023-07-30T03:58:16;4.33;;;3.90;;
7831;SDS011;3961;42.058;25.586;2023-07-30T04:00:42;6.80;;;3.90;;
7831;SDS011;3961;42.058;25.586;2023-07-30T04:03:07;6.60;;;3.40;;
7831;SDS011;3961;42.058;25.586;2023-07-30T04:05:33;5.20;;;3.17;;
7831;SDS011;3961;42.058;25.586;2023-07-30T04:07:58;5.67;;;3.70;;
7831;SDS011;3961;42.058;25.586;2023-07-30T04:10:24;5.90;;;3.43;;
7831;SDS011;3961;42.058;25.586;2023-07-30T04:12:49;5.80;;;3.83;;
7831;SDS011;3961;42.058;25.586;2023-07-30T04:15:15;5.15;;;3.85;;
7831;SDS011;3961;42.058;25.586;2023-07-30T04:17:41;6.18;;;3.65;;
7831;SDS011;3961;42.058;25.586;2023-07-30T04:20:07;5.18;;;3.60;;
7831;SDS011;3961;42.058;25.586;2023-07-30T04:22:34;6.00;;;4.47;;
7831;SDS011;3961;42.058;25.586;2023-07-30T04:25:00;11.23;;;6.78;;
7831;SDS011;3961;42.058;25.586;2023-07-30T04:27:26;15.13;;;7.55;;
7831;SDS011;3961;42.058;25.586;2023-07-30T04:29:51;14.75;;;8.95;;
7831;SDS011;3961;42.058;25.586;2023-07-30T04:32:16;11.93;;;8.15;;
7831;SDS011;3961;42.058;25.586;2023-07-30T04:34:42;19.08;;;12.25;;
7831;SDS011;3961;42.058;25.586;2023-07-30T04:37:07;13.30;;;7.00;;
7831;SDS011;3961;42.058;25.586;2023-07-30T04:39:33;9.02;;;5.40;;
7831;SDS011;3961;42.058;25.586;2023-07-30T04:41:58;8.68;;;5.43;;
7831;SDS011;3961;42.058;25.586;2023-07-30T04:44:24;7.60;;;4.35;;
7831;SDS011;3961;42.058;25.586;2023-07-30T04:46:49;5.53;;;3.40;;
7831;SDS011;3961;42.058;25.586;2023-07-30T04:49:15;6.60;;;4.53;;
7831;SDS011;3961;42.058;25.586;2023-07-30T04:51:40;15.07;;;6.00;;
7831;SDS011;3961;42.058;25.586;2023-07-30T04:54:06;10.45;;;6.88;;
7831;SDS011;3961;42.058;25.586;2023-07-30T04:56:31;14.27;;;7.35;;
7831;SDS011;3961;42.058;25.586;2023-07-30T04:58:57;10.73;;;5.82;;
7831;SDS011;3961;42.058;25.586;2023-07-30T05:01:23;16.85;;;5.85;;
7831;SDS011;3961;42.058;25.586;2023-07-30T05:03:49;7.40;;;4.18;;
7831;SDS011;3961;42.058;25.586;2023-07-30T05:06:14;10.65;;;3.30;;
7831;SDS011;3961;42.058;25.586;2023-07-30T05:08:40;4.65;;;3.30;;
7831;SDS011;3961;42.058;25.586;2023-07-30T05:11:05;10.73;;;3.85;;
7831;SDS011;3961;42.058;25.586;2023-07-30T05:13:31;10.35;;;5.07;;
7831;SDS011;3961;42.058;25.586;2023-07-30T05:15:56;6.80;;;4.97;;
7831;SDS011;3961;42.058;25.586;2023-07-30T05:18:22;6.25;;;3.38;;
7831;SDS011;3961;42.058;25.586;2023-07-30T05:20:47;9.18;;;4.28;;
7831;SDS011;3961;42.058;25.586;2023-07-30T05:23:15;3.90;;;2.90;;
7831;SDS011;3961;42.058;25.586;2023-07-30T05:25:41;6.95;;;3.13;;
7831;SDS011;3961;42.058;25.586;2023-07-30T05:28:06;12.60;;;4.07;;
7831;SDS011;3961;42.058;25.586;2023-07-30T05:30:32;5.07;;;3.70;;
7831;SDS011;3961;42.058;25.586;2023-07-30T05:32:57;8.55;;;4.70;;
7831;SDS011;3961;42.058;25.586;2023-07-30T05:35:22;5.93;;;4.35;;
7831;SDS011;3961;42.058;25.586;2023-07-30T05:37:48;11.07;;;5.03;;
7831;SDS011;3961;42.058;25.586;2023-07-30T05:40:13;9.95;;;5.50;;
7831;SDS011;3961;42.058;25.586;2023-07-30T05:42:39;11.18;;;5.30;;
7831;SDS011;3961;42.058;25.586;2023-07-30T05:45:04;8.20;;;4.68;;
7831;SDS011;3961;42.058;25.586;2023-07-30T05:47:30;12.55;;;5.80;;
7831;SDS011;3961;42.058;25.586;2023-07-30T05:49:56;6.97;;;3.90;;
7831;SDS011;3961;42.058;25.586;2023-07-30T05:52:21;9.48;;;4.78;;
7831;SDS011;3961;42.058;25.586;2023-07-30T05:54:47;10.35;;;4.07;;
7831;SDS011;3961;42.058;25.586;2023-07-30T05:57:12;4.78;;;3.78;;
7831;SDS011;3961;42.058;25.586;2023-07-30T05:59:37;8.77;;;3.85;;
7831;SDS011;3961;42.058;25.586;2023-07-30T06:02:03;7.28;;;3.63;;
7831;SDS011;3961;42.058;25.586;2023-07-30T06:04:29;11.97;;;4.40;;
7831;SDS011;3961;42.058;25.586;2023-07-30T06:06:55;6.77;;;4.63;;
7831;SDS011;3961;42.058;25.586;2023-07-30T06:09:20;8.07;;;3.90;;
7831;SDS011;3961;42.058;25.586;2023-07-30T06:11:45;9.17;;;3.60;;
7831;SDS011;3961;42.058;25.586;2023-07-30T06:14:11;5.23;;;2.80;;
7831;SDS011;3961;42.058;25.586;2023-07-30T06:16:36;6.80;;;3.23;;
7831;SDS011;3961;42.058;25.586;2023-07-30T06:19:02;6.57;;;3.00;;
7831;SDS011;3961;42.058;25.586;2023-07-30T06:21:27;8.10;;;3.23;;
7831;SDS011;3961;42.058;25.586;2023-07-30T06:23:53;4.57;;;3.03;;
7831;SDS011;3961;42.058;25.586;2023-07-30T06:26:19;4.70;;;3.13;;
7831;SDS011;3961;42.058;25.586;2023-07-30T06:28:44;7.87;;;3.30;;
7831;SDS011;3961;42.058;25.586;2023-07-30T06:31:10;5.90;;;2.90;;
7831;SDS011;3961;42.058;25.586;2023-07-30T06:33:35;7.03;;;3.27;;
7831;SDS011;3961;42.058;25.586;2023-07-30T06:36:02;8.80;;;3.90;;
7831;SDS011;3961;42.058;25.586;2023-07-30T06:38:28;7.40;;;3.07;;
7831;SDS011;3961;42.058;25.586;2023-07-30T06:40:53;6.90;;;3.00;;
7831;SDS011;3961;42.058;25.586;2023-07-30T06:43:19;5.90;;;3.37;;
7831;SDS011;3961;42.058;25.586;2023-07-30T06:45:44;9.83;;;3.60;;
7831;SDS011;3961;42.058;25.586;2023-07-30T06:48:10;5.83;;;3.37;;
7831;SDS011;3961;42.058;25.586;2023-07-30T06:50:35;10.70;;;3.60;;
7831;SDS011;3961;42.058;25.586;2023-07-30T06:53:00;5.20;;;3.17;;
7831;SDS011;3961;42.058;25.586;2023-07-30T06:55:26;5.80;;;2.97;;
7831;SDS011;3961;42.058;25.586;2023-07-30T06:57:51;7.60;;;3.67;;
7831;SDS011;3961;42.058;25.586;2023-07-30T07:00:16;4.88;;;2.80;;
7831;SDS011;3961;42.058;25.586;2023-07-30T07:02:47;11.52;;;3.15;;
7831;SDS011;3961;42.058;25.586;2023-07-30T07:05:13;5.13;;;2.90;;
7831;SDS011;3961;42.058;25.586;2023-07-30T07:07:39;3.70;;;3.15;;
7831;SDS011;3961;42.058;25.586;2023-07-30T07:10:05;8.63;;;3.70;;
7831;SDS011;3961;42.058;25.586;2023-07-30T07:12:30;9.32;;;3.03;;
7831;SDS011;3961;42.058;25.586;2023-07-30T07:14:56;6.60;;;3.38;;
7831;SDS011;3961;42.058;25.586;2023-07-30T07:17:23;5.78;;;3.42;;
7831;SDS011;3961;42.058;25.586;2023-07-30T07:19:49;6.07;;;3.35;;
7831;SDS011;3961;42.058;25.586;2023-07-30T07:22:15;11.27;;;3.42;;
7831;SDS011;3961;42.058;25.586;2023-07-30T07:24:42;7.43;;;3.17;;
7831;SDS011;3961;42.058;25.586;2023-07-30T07:27:08;5.65;;;3.17;;
7831;SDS011;3961;42.058;25.586;2023-07-30T07:29:33;5.50;;;2.90;;
7831;SDS011;3961;42.058;25.586;2023-07-30T07:31:58;3.83;;;2.83;;
7831;SDS011;3961;42.058;25.586;2023-07-30T07:34:24;5.95;;;3.22;;
7831;SDS011;3961;42.058;25.586;2023-07-30T07:36:49;18.23;;;3.60;;
7831;SDS011;3961;42.058;25.586;2023-07-30T07:39:15;8.15;;;3.00;;
7831;SDS011;3961;42.058;25.586;2023-07-30T07:41:40;7.05;;;3.38;;
7831;SDS011;3961;42.058;25.586;2023-07-30T07:44:05;6.38;;;3.03;;
7831;SDS011;3961;42.058;25.586;2023-07-30T07:46:31;5.78;;;3.13;;
7831;SDS011;3961;42.058;25.586;2023-07-30T07:48:56;4.53;;;2.75;;
7831;SDS011;3961;42.058;25.586;2023-07-30T07:51:21;7.57;;;3.03;;
7831;SDS011;3961;42.058;25.586;2023-07-30T07:53:47;3.40;;;2.65;;
7831;SDS011;3961;42.058;25.586;2023-07-30T07:56:12;15.02;;;3.83;;
7831;SDS011;3961;42.058;25.586;2023-07-30T07:58:38;4.55;;;2.70;;
7831;SDS011;3961;42.058;25.586;2023-07-30T08:01:03;6.05;;;2.78;;
7831;SDS011;3961;42.058;25.586;2023-07-30T08:03:29;7.22;;;3.00;;
7831;SDS011;3961;42.058;25.586;2023-07-30T08:05:54;9.55;;;2.95;;
7831;SDS011;3961;42.058;25.586;2023-07-30T08:08:20;13.75;;;3.42;;
7831;SDS011;3961;42.058;25.586;2023-07-30T08:10:46;7.68;;;2.75;;
7831;SDS011;3961;42.058;25.586;2023-07-30T08:13:13;6.30;;;3.17;;
7831;SDS011;3961;42.058;25.586;2023-07-30T08:15:38;8.13;;;2.65;;
7831;SDS011;3961;42.058;25.586;2023-07-30T08:18:04;3.95;;;2.70;;
7831;SDS011;3961;42.058;25.586;2023-07-30T08:20:29;7.47;;;2.70;;
7831;SDS011;3961;42.058;25.586;2023-07-30T08:22:55;5.93;;;2.60;;
7831;SDS011;3961;42.058;25.586;2023-07-30T08:25:20;5.93;;;2.53;;
7831;SDS011;3961;42.058;25.586;2023-07-30T08:27:46;5.95;;;2.47;;
7831;SDS011;3961;42.058;25.586;2023-07-30T08:30:11;5.03;;;2.47;;
7831;SDS011;3961;42.058;25.586;2023-07-30T08:32:37;3.33;;;2.50;;
7831;SDS011;3961;42.058;25.586;2023-07-30T08:35:03;3.35;;;2.38;;
7831;SDS011;3961;42.058;25.586;2023-07-30T08:37:29;5.22;;;2.70;;
7831;SDS011;3961;42.058;25.586;2023-07-30T08:39:55;6.32;;;3.17;;
7831;SDS011;3961;42.058;25.586;2023-07-30T08:42:20;3.88;;;2.53;;
7831;SDS011;3961;42.058;25.586;2023-07-30T08:44:45;2.90;;;2.25;;
7831;SDS011;3961;42.058;25.586;2023-07-30T08:47:11;4.82;;;2.72;;
7831;SDS011;3961;42.058;25.586;2023-07-30T08:49:36;8.65;;;2.75;;
7831;SDS011;3961;42.058;25.586;2023-07-30T08:52:02;5.25;;;2.40;;
7831;SDS011;3961;42.058;25.586;2023-07-30T08:54:29;5.40;;;2.90;;
7831;SDS011;3961;42.058;25.586;2023-07-30T08:56:56;3.63;;;2.30;;
7831;SDS011;3961;42.058;25.586;2023-07-30T08:59:23;5.47;;;2.53;;
7831;SDS011;3961;42.058;25.586;2023-07-30T09:01:50;4.95;;;2.45;;
7831;SDS011;3961;42.058;25.586;2023-07-30T09:04:17;2.75;;;2.35;;
7831;SDS011;3961;42.058;25.586;2023-07-30T09:06:43;4.85;;;2.63;;
7831;SDS011;3961;42.058;25.586;2023-07-30T09:09:09;3.88;;;2.50;;
7831;SDS011;3961;42.058;25.586;2023-07-30T09:11:36;7.93;;;3.40;;
7831;SDS011;3961;42.058;25.586;2023-07-30T09:14:02;5.40;;;3.03;;
7831;SDS011;3961;42.058;25.586;2023-07-30T09:16:28;8.20;;;2.85;;
7831;SDS011;3961;42.058;25.586;2023-07-30T09:18:53;6.05;;;3.53;;
7831;SDS011;3961;42.058;25.586;2023-07-30T09:21:19;5.22;;;2.33;;
7831;SDS011;3961;42.058;25.586;2023-07-30T09:23:54;4.45;;;2.30;;
7831;SDS011;3961;42.058;25.586;2023-07-30T09:26:19;3.97;;;2.50;;
7831;SDS011;3961;42.058;25.586;2023-07-30T09:28:44;5.18;;;2.70;;
7831;SDS011;3961;42.058;25.586;2023-07-30T09:31:10;6.65;;;2.70;;
7831;SDS011;3961;42.058;25.586;2023-07-30T09:33:39;4.85;;;2.42;;
7831;SDS011;3961;42.058;25.586;2023-07-30T09:36:07;3.53;;;2.65;;
7831;SDS011;3961;42.058;25.586;2023-07-30T09:38:39;3.72;;;2.70;;
7831;SDS011;3961;42.058;25.586;2023-07-30T09:41:06;5.03;;;2.72;;
7831;SDS011;3961;42.058;25.586;2023-07-30T09:43:32;3.13;;;2.35;;
7831;SDS011;3961;42.058;25.586;2023-07-30T09:46:05;6.25;;;2.35;;
7831;SDS011;3961;42.058;25.586;2023-07-30T09:48:31;3.63;;;2.75;;
7831;SDS011;3961;42.058;25.586;2023-07-30T09:51:02;5.43;;;2.55;;
7831;SDS011;3961;42.058;25.586;2023-07-30T09:53:29;3.92;;;2.42;;
7831;SDS011;3961;42.058;25.586;2023-07-30T09:55:59;3.08;;;2.38;;
7831;SDS011;3961;42.058;25.586;2023-07-30T09:58:25;4.43;;;2.72;;
7831;SDS011;3961;42.058;25.586;2023-07-30T10:00:50;5.22;;;3.83;;
7831;SDS011;3961;42.058;25.586;2023-07-30T10:03:16;3.67;;;3.30;;
7831;SDS011;3961;42.058;25.586;2023-07-30T10:05:43;4.78;;;3.85;;
7831;SDS011;3961;42.058;25.586;2023-07-30T10:08:11;7.00;;;3.67;;
7831;SDS011;3961;42.058;25.586;2023-07-30T10:10:41;6.57;;;2.85;;
7831;SDS011;3961;42.058;25.586;2023-07-30T10:13:09;3.53;;;2.88;;
7831;SDS011;3961;42.058;25.586;2023-07-30T10:15:39;5.15;;;4.45;;
7831;SDS011;3961;42.058;25.586;2023-07-30T10:18:05;4.40;;;3.90;;
7831;SDS011;3961;42.058;25.586;2023-07-30T10:20:31;4.70;;;3.40;;
7831;SDS011;3961;42.058;25.586;2023-07-30T10:23:00;3.83;;;2.83;;
7831;SDS011;3961;42.058;25.586;2023-07-30T10:25:29;3.50;;;2.70;;
7831;SDS011;3961;42.058;25.586;2023-07-30T10:28:07;3.83;;;3.00;;
7831;SDS011;3961;42.058;25.586;2023-07-30T10:30:33;4.22;;;3.63;;
7831;SDS011;3961;42.058;25.586;2023-07-30T10:33:00;4.47;;;3.70;;
7831;SDS011;3961;42.058;25.586;2023-07-30T10:35:43;3.67;;;3.13;;
7831;SDS011;3961;42.058;25.586;2023-07-30T10:38:14;3.72;;;2.67;;
7831;SDS011;3961;42.058;25.586;2023-07-30T10:40:40;3.88;;;2.70;;
7831;SDS011;3961;42.058;25.586;2023-07-30T10:43:15;6.93;;;3.03;;
7831;SDS011;3961;42.058;25.586;2023-07-30T10:45:48;2.80;;;2.58;;
7831;SDS011;3961;42.058;25.586;2023-07-30T10:48:15;4.80;;;2.85;;
7831;SDS011;3961;42.058;25.586;2023-07-30T10:50:40;5.18;;;3.40;;
7831;SDS011;3961;42.058;25.586;2023-07-30T10:53:07;2.75;;;2.50;;
7831;SDS011;3961;42.058;25.586;2023-07-30T10:55:33;3.75;;;2.65;;
7831;SDS011;3961;42.058;25.586;2023-07-30T10:57:59;4.85;;;2.83;;
7831;SDS011;3961;42.058;25.586;2023-07-30T11:00:25;3.97;;;2.45;;
7831;SDS011;3961;42.058;25.586;2023-07-30T11:02:56;4.32;;;2.50;;
7831;SDS011;3961;42.058;25.586;2023-07-30T11:05:22;5.22;;;2.83;;
7831;SDS011;3961;42.058;25.586;2023-07-30T11:07:49;5.40;;;2.60;;
7831;SDS011;3961;42.058;25.586;2023-07-30T11:10:16;6.22;;;2.33;;
7831;SDS011;3961;42.058;25.586;2023-07-30T11:12:41;2.97;;;2.45;;
7831;SDS011;3961;42.058;25.586;2023-07-30T11:15:07;2.95;;;2.13;;
7831;SDS011;3961;42.058;25.586;2023-07-30T11:17:32;4.13;;;2.60;;
7831;SDS011;3961;42.058;25.586;2023-07-30T11:19:58;6.13;;;2.20;;
7831;SDS011;3961;42.058;25.586;2023-07-30T11:22:30;3.55;;;2.50;;
7831;SDS011;3961;42.058;25.586;2023-07-30T11:24:59;5.68;;;2.67;;
7831;SDS011;3961;42.058;25.586;2023-07-30T11:27:26;4.00;;;2.40;;
7831;SDS011;3961;42.058;25.586;2023-07-30T11:29:55;3.60;;;2.30;;
7831;SDS011;3961;42.058;25.586;2023-07-30T11:32:21;4.00;;;2.58;;
7831;SDS011;3961;42.058;25.586;2023-07-30T11:34:51;3.65;;;2.55;;
7831;SDS011;3961;42.058;25.586;2023-07-30T11:37:18;3.20;;;2.33;;
7831;SDS011;3961;42.058;25.586;2023-07-30T11:39:44;4.25;;;2.58;;
7831;SDS011;3961;42.058;25.586;2023-07-30T11:42:09;3.35;;;2.42;;
7831;SDS011;3961;42.058;25.586;2023-07-30T11:44:36;2.63;;;2.42;;
7831;SDS011;3961;42.058;25.586;2023-07-30T11:47:08;2.60;;;2.08;;
7831;SDS011;3961;42.058;25.586;2023-07-30T11:49:34;3.20;;;2.38;;
7831;SDS011;3961;42.058;25.586;2023-07-30T11:52:06;6.40;;;3.58;;
7831;SDS011;3961;42.058;25.586;2023-07-30T11:54:33;3.05;;;2.17;;
7831;SDS011;3961;42.058;25.586;2023-07-30T11:56:59;3.47;;;2.38;;
7831;SDS011;3961;42.058;25.586;2023-07-30T11:59:24;3.72;;;2.30;;
7831;SDS011;3961;42.058;25.586;2023-07-30T12:01:50;3.00;;;2.50;;
7831;SDS011;3961;42.058;25.586;2023-07-30T12:04:16;2.97;;;2.20;;
7831;SDS011;3961;42.058;25.586;2023-07-30T12:06:42;2.90;;;2.20;;
7831;SDS011;3961;42.058;25.586;2023-07-30T12:14:15;5.63;;;2.97;;
7831;SDS011;3961;42.058;25.586;2023-07-30T12:16:41;4.35;;;2.40;;
7831;SDS011;3961;42.058;25.586;2023-07-30T12:19:06;4.13;;;2.78;;
7831;SDS011;3961;42.058;25.586;2023-07-30T12:21:32;3.10;;;2.80;;
7831;SDS011;3961;42.058;25.586;2023-07-30T12:23:57;3.58;;;2.50;;
7831;SDS011;3961;42.058;25.586;2023-07-30T12:26:23;3.65;;;2.60;;
7831;SDS011;3961;42.058;25.586;2023-07-30T12:28:48;2.83;;;2.60;;
7831;SDS011;3961;42.058;25.586;2023-07-30T12:31:14;3.45;;;2.80;;
7831;SDS011;3961;42.058;25.586;2023-07-30T12:33:39;3.45;;;2.65;;
7831;SDS011;3961;42.058;25.586;2023-07-30T12:36:05;2.83;;;2.53;;
7831;SDS011;3961;42.058;25.586;2023-07-30T12:38:30;5.78;;;2.65;;
7831;SDS011;3961;42.058;25.586;2023-07-30T12:40:55;20.60;;;2.75;;
7831;SDS011;3961;42.058;25.586;2023-07-30T12:43:21;3.08;;;2.78;;
7831;SDS011;3961;42.058;25.586;2023-07-30T12:45:47;3.05;;;2.75;;
7831;SDS011;3961;42.058;25.586;2023-07-30T12:48:12;3.05;;;2.58;;
7831;SDS011;3961;42.058;25.586;2023-07-30T12:50:38;5.03;;;2.78;;
7831;SDS011;3961;42.058;25.586;2023-07-30T12:53:04;3.38;;;2.67;;
7831;SDS011;3961;42.058;25.586;2023-07-30T12:55:29;5.03;;;2.83;;
7831;SDS011;3961;42.058;25.586;2023-07-30T12:57:54;4.35;;;2.47;;
7831;SDS011;3961;42.058;25.586;2023-07-30T13:00:20;3.67;;;2.72;;
7831;SDS011;3961;42.058;25.586;2023-07-30T13:02:45;2.70;;;2.50;;
7831;SDS011;3961;42.058;25.586;2023-07-30T13:05:11;2.75;;;2.55;;
7831;SDS011;3961;42.058;25.586;2023-07-30T13:07:38;3.13;;;2.83;;
7831;SDS011;3961;42.058;25.586;2023-07-30T13:10:07;3.63;;;2.80;;
7831;SDS011;3961;42.058;25.586;2023-07-30T13:12:34;3.22;;;2.60;;
7831;SDS011;3961;42.058;25.586;2023-07-30T13:15:01;2.80;;;2.40;;
7831;SDS011;3961;42.058;25.586;2023-07-30T13:17:27;4.10;;;2.50;;
7831;SDS011;3961;42.058;25.586;2023-07-30T13:19:53;3.58;;;2.80;;
7831;SDS011;3961;42.058;25.586;2023-07-30T13:22:18;3.15;;;2.80;;
7831;SDS011;3961;42.058;25.586;2023-07-30T13:24:44;3.55;;;2.70;;
7831;SDS011;3961;42.058;25.586;2023-07-30T13:27:09;2.80;;;2.60;;
7831;SDS011;3961;42.058;25.586;2023-07-30T13:29:35;3.55;;;2.60;;
7831;SDS011;3961;42.058;25.586;2023-07-30T13:32:01;4.35;;;2.90;;
7831;SDS011;3961;42.058;25.586;2023-07-30T13:34:26;2.63;;;2.30;;
7831;SDS011;3961;42.058;25.586;2023-07-30T13:36:52;2.85;;;2.55;;
7831;SDS011;3961;42.058;25.586;2023-07-30T13:39:17;2.50;;;2.30;;
7831;SDS011;3961;42.058;25.586;2023-07-30T13:41:43;3.05;;;2.50;;
7831;SDS011;3961;42.058;25.586;2023-07-30T13:44:09;2.80;;;2.40;;
7831;SDS011;3961;42.058;25.586;2023-07-30T13:46:36;3.10;;;2.65;;
7831;SDS011;3961;42.058;25.586;2023-07-30T13:49:02;3.25;;;2.55;;
7831;SDS011;3961;42.058;25.586;2023-07-30T13:51:27;2.60;;;2.40;;
7831;SDS011;3961;42.058;25.586;2023-07-30T13:53:57;3.72;;;2.90;;
7831;SDS011;3961;42.058;25.586;2023-07-30T13:56:24;2.70;;;2.50;;
7831;SDS011;3961;42.058;25.586;2023-07-30T13:58:50;4.07;;;3.30;;
7831;SDS011;3961;42.058;25.586;2023-07-30T14:01:15;3.58;;;2.65;;
7831;SDS011;3961;42.058;25.586;2023-07-30T14:03:41;3.22;;;2.85;;
7831;SDS011;3961;42.058;25.586;2023-07-30T14:06:06;3.75;;;2.80;;
7831;SDS011;3961;42.058;25.586;2023-07-30T14:08:32;3.28;;;2.80;;
7831;SDS011;3961;42.058;25.586;2023-07-30T14:10:57;3.80;;;2.60;;
7831;SDS011;3961;42.058;25.586;2023-07-30T14:13:24;3.08;;;2.53;;
7831;SDS011;3961;42.058;25.586;2023-07-30T14:15:49;3.10;;;2.65;;
7831;SDS011;3961;42.058;25.586;2023-07-30T14:18:15;6.18;;;3.20;;
7831;SDS011;3961;42.058;25.586;2023-07-30T14:20:40;4.28;;;2.50;;
7831;SDS011;3961;42.058;25.586;2023-07-30T14:23:06;6.10;;;2.80;;
7831;SDS011;3961;42.058;25.586;2023-07-30T14:25:32;3.70;;;2.83;;
7831;SDS011;3961;42.058;25.586;2023-07-30T14:27:57;5.45;;;2.90;;
7831;SDS011;3961;42.058;25.586;2023-07-30T14:30:23;2.90;;;2.63;;
7831;SDS011;3961;42.058;25.586;2023-07-30T14:32:48;3.38;;;2.70;;
7831;SDS011;3961;42.058;25.586;2023-07-30T14:35:14;3.25;;;2.72;;
7831;SDS011;3961;42.058;25.586;2023-07-30T14:37:39;3.03;;;2.72;;
7831;SDS011;3961;42.058;25.586;2023-07-30T14:40:05;2.70;;;2.50;;
7831;SDS011;3961;42.058;25.586;2023-07-30T14:42:50;3.20;;;2.83;;
7831;SDS011;3961;42.058;25.586;2023-07-30T14:45:16;3.25;;;2.70;;
7831;SDS011;3961;42.058;25.586;2023-07-30T14:47:41;2.80;;;2.60;;
7831;SDS011;3961;42.058;25.586;2023-07-30T14:50:07;2.83;;;2.63;;
7831;SDS011;3961;42.058;25.586;2023-07-30T14:52:32;2.78;;;2.30;;
7831;SDS011;3961;42.058;25.586;2023-07-30T14:54:58;2.95;;;2.70;;
7831;SDS011;3961;42.058;25.586;2023-07-30T14:57:23;3.10;;;2.67;;
7831;SDS011;3961;42.058;25.586;2023-07-30T14:59:49;4.13;;;2.45;;